Time;durP1;ratioP1;P1;durP2;ratioP2;P2;SDS_P1;SDS_P2;PMS_P1;PMS_P2;Temp;Humidity;BMP_temperature;BMP_pressure;BME280_temperature;BME280_humidity;BME280_pressure;Samples;Min_cycle;Max_cycle;Signal;HPM_P1;HPM_P2
2022/08/07 00:00:13;;;;;;;3.27;2.97;;;12.70;99.90;;;;;;5016867;28;20471;-55
2022/08/07 00:02:43;;;;;;;3.40;3.10;;;12.70;99.90;;;;;;5016025;28;20531;-51
2022/08/07 00:05:13;;;;;;;3.63;2.80;;;12.70;99.90;;;;;;5016445;28;20860;-53
2022/08/07 00:07:42;;;;;;;2.70;2.50;;;12.60;99.90;;;;;;5016460;28;20971;-55
2022/08/07 00:10:10;;;;;;;3.03;2.73;;;12.50;99.90;;;;;;5016557;28;20500;-54
2022/08/07 00:12:38;;;;;;;2.87;2.50;;;12.50;99.90;;;;;;5016182;28;20435;-56
2022/08/07 00:15:09;;;;;;;5.20;2.97;;;12.40;99.90;;;;;;5016601;28;20962;-51
2022/08/07 00:17:38;;;;;;;4.30;3.57;;;12.40;99.90;;;;;;5016528;28;20468;-51
2022/08/07 00:20:07;;;;;;;2.83;2.63;;;12.40;99.90;;;;;;5016379;28;20468;-53
2022/08/07 00:22:34;;;;;;;3.17;2.87;;;12.40;99.90;;;;;;5016375;28;20539;-53
2022/08/07 00:25:04;;;;;;;3.30;3.00;;;12.30;99.90;;;;;;5016193;28;20562;-54
2022/08/07 00:27:32;;;;;;;2.87;2.50;;;12.30;99.90;;;;;;5016103;28;20762;-50
2022/08/07 00:30:01;;;;;;;3.63;3.30;;;12.20;99.90;;;;;;5016502;28;20781;-58
2022/08/07 00:32:28;;;;;;;3.60;3.30;;;12.10;1.00;;;;;;5016187;28;20534;-54
2022/08/07 00:34:56;;;;;;;5.30;3.80;;;12.00;1.00;;;;;;5016010;28;20445;-55
2022/08/07 00:37:23;;;;;;;3.87;3.40;;;12.00;1.00;;;;;;5015972;28;20526;-54
2022/08/07 00:39:52;;;;;;;3.77;3.37;;;12.00;1.00;;;;;;5015809;28;20498;-55
2022/08/07 00:42:22;;;;;;;2.80;2.37;;;11.90;1.00;;;;;;5015984;28;20779;-52
2022/08/07 00:44:54;;;;;;;2.90;2.60;;;11.90;1.00;;;;;;5015814;28;20841;-50
2022/08/07 00:47:22;;;;;;;3.73;2.80;;;11.80;1.00;;;;;;5015905;28;20945;-49
2022/08/07 00:49:51;;;;;;;5.10;2.67;;;11.70;1.00;;;;;;5016064;28;20468;-52
2022/08/07 00:52:20;;;;;;;3.13;2.67;;;11.70;1.00;;;;;;5015916;28;20785;-52
2022/08/07 00:54:47;;;;;;;3.53;2.73;;;11.80;1.00;;;;;;5016143;28;20488;-52
2022/08/07 00:57:16;;;;;;;3.90;2.77;;;11.80;1.00;;;;;;5015806;28;20466;-51
2022/08/07 00:59:44;;;;;;;2.80;2.60;;;11.80;1.00;;;;;;5015620;28;20468;-54
2022/08/07 01:02:14;;;;;;;2.77;2.50;;;11.80;1.00;;;;;;5015791;28;20533;-49
2022/08/07 01:04:45;;;;;;;4.63;3.90;;;11.80;1.00;;;;;;5015445;28;20533;-49
2022/08/07 01:07:13;;;;;;;3.63;2.83;;;11.70;1.00;;;;;;5015615;28;20504;-49
2022/08/07 01:09:45;;;;;;;3.37;2.67;;;11.60;1.00;;;;;;5015706;28;20468;-51
2022/08/07 01:12:17;;;;;;;5.30;2.40;;;11.60;1.00;;;;;;5015571;28;20461;-56
2022/08/07 01:14:48;;;;;;;4.40;2.23;;;11.60;1.00;;;;;;5015302;28;20567;-51
2022/08/07 01:17:18;;;;;;;2.90;2.60;;;11.50;1.00;;;;;;5015349;28;20984;-53
2022/08/07 01:19:45;;;;;;;3.93;2.27;;;11.50;1.00;;;;;;5024322;28;20495;-54
2022/08/07 01:22:15;;;;;;;4.57;2.60;;;11.40;1.00;;;;;;5055441;28;20436;-52
2022/08/07 01:24:45;;;;;;;3.30;2.90;;;11.40;1.00;;;;;;5051838;28;20874;-48
2022/08/07 01:27:12;;;;;;;3.70;3.07;;;11.40;1.00;;;;;;5044916;28;20768;-51
2022/08/07 01:29:40;;;;;;;3.10;2.80;;;11.40;1.00;;;;;;5035227;28;20438;-53
2022/08/07 01:32:07;;;;;;;3.87;2.77;;;11.40;1.00;;;;;;5052471;28;20462;-52
2022/08/07 01:34:43;;;;;;;3.93;2.70;;;11.30;1.00;;;;;;5052778;28;20532;-57
2022/08/07 01:37:15;;;;;;;5.90;3.07;;;11.30;1.00;;;;;;5040255;28;20440;-55
2022/08/07 01:39:46;;;;;;;4.10;2.50;;;11.20;1.00;;;;;;5054497;28;20462;-55
2022/08/07 01:42:14;;;;;;;3.03;2.47;;;11.20;1.00;;;;;;5054021;28;20538;-52
2022/08/07 01:44:42;;;;;;;3.17;2.80;;;11.20;1.00;;;;;;5037887;28;20574;-52
2022/08/07 01:47:12;;;;;;;2.90;2.30;;;11.10;1.00;;;;;;5047121;28;20560;-55
2022/08/07 01:49:40;;;;;;;4.00;2.33;;;11.20;1.00;;;;;;5052337;28;20443;-56
2022/08/07 01:52:09;;;;;;;2.97;2.40;;;11.20;1.00;;;;;;5015340;28;20446;-50
2022/08/07 01:54:41;;;;;;;2.47;2.27;;;11.10;1.00;;;;;;5033547;28;20917;-51
2022/08/07 01:57:17;;;;;;;3.00;2.70;;;11.10;1.00;;;;;;5045210;28;20464;-56
2022/08/07 01:59:50;;;;;;;2.87;2.47;;;11.10;1.00;;;;;;5033954;28;20441;-53
2022/08/07 02:02:24;;;;;;;2.93;2.63;;;11.10;1.00;;;;;;5052782;28;20466;-55
2022/08/07 02:05:01;;;;;;;3.23;2.43;;;11.00;1.00;;;;;;5051657;28;20462;-56
2022/08/07 02:07:39;;;;;;;2.50;2.27;;;11.00;1.00;;;;;;5034285;28;20467;-52
2022/08/07 02:10:11;;;;;;;3.40;2.67;;;11.00;1.00;;;;;;5034842;28;20872;-51
2022/08/07 02:12:44;;;;;;;2.93;2.40;;;11.00;1.00;;;;;;5034196;28;20851;-54
2022/08/07 02:15:14;;;;;;;5.40;3.07;;;11.00;1.00;;;;;;5034541;28;20448;-50
2022/08/07 02:17:43;;;;;;;2.77;2.33;;;11.00;1.00;;;;;;5034035;28;20958;-54
2022/08/07 02:20:12;;;;;;;3.30;2.60;;;11.00;1.00;;;;;;5034507;28;20467;-49
2022/08/07 02:22:41;;;;;;;3.40;2.37;;;11.00;1.00;;;;;;5034223;28;20531;-52
2022/08/07 02:25:13;;;;;;;2.97;2.57;;;10.90;1.00;;;;;;5034154;28;20866;-58
2022/08/07 02:27:45;;;;;;;2.60;2.40;;;10.90;1.00;;;;;;5034107;28;20463;-53
2022/08/07 02:30:16;;;;;;;3.10;2.50;;;10.80;1.00;;;;;;5033998;28;20474;-56
2022/08/07 02:32:47;;;;;;;3.20;2.90;;;10.80;1.00;;;;;;5033763;28;20434;-52
2022/08/07 02:35:18;;;;;;;3.00;2.70;;;10.80;1.00;;;;;;5034361;28;20759;-53
2022/08/07 02:37:47;;;;;;;4.13;2.60;;;10.70;1.00;;;;;;5034491;28;20483;-58
2022/08/07 02:40:19;;;;;;;2.90;2.60;;;10.60;1.00;;;;;;5034042;28;21029;-54
2022/08/07 02:42:51;;;;;;;2.90;2.60;;;10.60;13.60;;;;;;5033646;28;20470;-51
2022/08/07 02:45:22;;;;;;;3.63;2.50;;;10.60;39.10;;;;;;5033480;28;20537;-50
2022/08/07 02:47:52;;;;;;;3.33;2.40;;;10.60;13.50;;;;;;5034222;28;20485;-54
2022/08/07 02:50:20;;;;;;;2.80;2.60;;;10.60;1.00;;;;;;5034245;28;20463;-50
2022/08/07 02:52:55;;;;;;;3.30;2.40;;;10.60;8.60;;;;;;5033696;28;20498;-50
2022/08/07 02:55:24;;;;;;;3.17;2.77;;;10.60;4.30;;;;;;5033928;28;20497;-53
2022/08/07 02:57:57;;;;;;;2.60;2.37;;;10.60;1.00;;;;;;5033886;28;20438;-54
2022/08/07 03:00:29;;;;;;;3.23;2.80;;;10.50;1.00;;;;;;5034537;28;20474;-56
2022/08/07 03:02:57;;;;;;;3.30;2.27;;;10.40;1.00;;;;;;5036888;28;20437;-58
2022/08/07 03:05:25;;;;;;;4.30;2.73;;;10.40;23.70;;;;;;5037029;28;20469;-55
2022/08/07 03:07:53;;;;;;;2.97;2.40;;;10.40;29.90;;;;;;5037404;28;20532;-53
2022/08/07 03:10:24;;;;;;;3.40;3.10;;;10.40;31.60;;;;;;5037240;28;20779;-53
2022/08/07 03:12:56;;;;;;;3.40;2.60;;;10.40;27.00;;;;;;5036899;28;20470;-55
2022/08/07 03:15:26;;;;;;;5.10;2.40;;;10.40;44.80;;;;;;5036531;28;20539;-51
2022/08/07 03:17:53;;;;;;;3.40;2.53;;;10.40;39.50;;;;;;5036986;28;20490;-54
2022/08/07 03:20:21;;;;;;;3.63;2.57;;;10.40;11.70;;;;;;5037303;28;20566;-54
2022/08/07 03:22:52;;;;;;;3.30;2.73;;;10.40;1.00;;;;;;5036808;28;20858;-49
2022/08/07 03:25:22;;;;;;;2.93;2.63;;;10.30;1.00;;;;;;5036856;28;20460;-52
2022/08/07 03:27:50;;;;;;;3.50;3.20;;;10.30;1.00;;;;;;5037107;28;20467;-52
2022/08/07 03:30:20;;;;;;;3.13;2.90;;;10.30;21.00;;;;;;5037072;28;20540;-55
2022/08/07 03:32:49;;;;;;;3.00;2.50;;;10.30;22.00;;;;;;5037040;28;20463;-56
2022/08/07 03:35:21;;;;;;;3.77;2.90;;;10.30;28.40;;;;;;5036467;28;20467;-52
2022/08/07 03:37:53;;;;;;;4.10;2.80;;;10.30;35.60;;;;;;5036765;28;20967;-53
2022/08/07 03:40:21;;;;;;;2.77;2.57;;;10.30;1.00;;;;;;5036614;28;20506;-55
2022/08/07 03:42:49;;;;;;;3.00;2.70;;;10.20;1.00;;;;;;5036730;28;20467;-51
2022/08/07 03:45:21;;;;;;;3.03;2.73;;;10.20;14.90;;;;;;5036019;28;20502;-54
2022/08/07 03:47:49;;;;;;;2.80;2.50;;;10.20;23.40;;;;;;5030146;28;20574;-53
2022/08/07 03:50:18;;;;;;;5.10;3.00;;;10.10;1.00;;;;;;5036353;28;20994;-53
2022/08/07 03:52:48;;;;;;;3.47;2.97;;;10.10;21.90;;;;;;5036293;28;20502;-53
2022/08/07 03:55:16;;;;;;;3.97;3.37;;;10.10;47.10;;;;;;5036406;28;20444;-57
2022/08/07 03:57:48;;;;;;;2.80;2.50;;;10.10;28.50;;;;;;5036531;28;20471;-56
2022/08/07 04:00:19;;;;;;;3.13;2.83;;;10.00;61.40;;;;;;5036386;28;20461;-52
2022/08/07 04:02:48;;;;;;;4.53;2.77;;;10.00;92.50;;;;;;5036181;28;20919;-50
2022/08/07 04:05:16;;;;;;;3.80;3.03;;;10.00;99.90;;;;;;5033440;28;20516;-53
2022/08/07 04:07:47;;;;;;;3.53;2.83;;;10.00;99.90;;;;;;5018231;28;20474;-55
2022/08/07 04:10:14;;;;;;;3.73;2.80;;;10.00;99.90;;;;;;5016130;28;20525;-54
2022/08/07 04:12:42;;;;;;;3.30;3.00;;;9.90;99.90;;;;;;5015066;28;20449;-54
2022/08/07 04:15:12;;;;;;;2.83;2.53;;;9.90;99.90;;;;;;5016297;28;20496;-56
2022/08/07 04:17:42;;;;;;;3.90;2.70;;;9.90;99.90;;;;;;5027750;28;20524;-53
2022/08/07 04:20:12;;;;;;;4.60;3.13;;;9.90;99.90;;;;;;5036156;28;20884;-52
2022/08/07 04:22:40;;;;;;;3.80;3.20;;;9.90;99.90;;;;;;5020070;28;20476;-59
2022/08/07 04:25:09;;;;;;;3.13;2.83;;;9.90;99.90;;;;;;5015964;28;20511;-53
2022/08/07 04:27:36;;;;;;;3.60;2.77;;;9.90;99.90;;;;;;5016506;28;20927;-51
2022/08/07 04:30:06;;;;;;;2.83;2.57;;;9.90;99.90;;;;;;5016377;28;20824;-56
2022/08/07 04:32:39;;;;;;;3.00;2.43;;;9.90;99.90;;;;;;5029144;28;20478;-52
2022/08/07 04:35:09;;;;;;;3.33;2.83;;;9.90;99.90;;;;;;5036548;28;20494;-52
2022/08/07 04:37:38;;;;;;;2.77;2.33;;;10.00;99.90;;;;;;5049863;28;20949;-51
2022/08/07 04:40:06;;;;;;;3.90;3.27;;;10.00;99.90;;;;;;5046341;28;20907;-56
2022/08/07 04:42:34;;;;;;;3.40;2.43;;;10.00;99.90;;;;;;5034395;28;20429;-56
2022/08/07 04:45:03;;;;;;;4.67;3.20;;;10.10;99.90;;;;;;5033922;28;20886;-56
2022/08/07 04:47:35;;;;;;;4.23;3.37;;;10.10;99.90;;;;;;5033989;28;20503;-51
2022/08/07 04:50:08;;;;;;;4.17;3.60;;;10.20;98.70;;;;;;5044836;28;20466;-54
2022/08/07 04:52:46;;;;;;;4.03;3.63;;;10.20;77.70;;;;;;5040273;28;20461;-54
2022/08/07 04:55:23;;;;;;;4.77;3.10;;;10.20;97.40;;;;;;5035372;28;20495;-52
2022/08/07 04:57:56;;;;;;;5.33;3.03;;;10.20;99.70;;;;;;5034765;28;20851;-57
2022/08/07 05:00:34;;;;;;;3.73;3.20;;;10.30;99.90;;;;;;5044457;28;20462;-58
2022/08/07 05:03:13;;;;;;;3.37;3.07;;;10.40;99.90;;;;;;5053742;28;20440;-51
2022/08/07 05:05:43;;;;;;;2.90;2.60;;;10.40;99.90;;;;;;5053862;28;20548;-55
2022/08/07 05:08:20;;;;;;;3.27;2.97;;;10.40;99.90;;;;;;5054812;28;20510;-55
2022/08/07 05:10:59;;;;;;;3.37;2.70;;;10.50;99.90;;;;;;5054647;28;20478;-59
2022/08/07 05:13:38;;;;;;;3.50;2.93;;;10.50;99.90;;;;;;5054856;28;20553;-53
2022/08/07 05:16:09;;;;;;;3.60;3.30;;;10.60;99.90;;;;;;5055534;28;20469;-52
2022/08/07 05:18:46;;;;;;;3.20;2.90;;;10.60;99.90;;;;;;5054434;28;20460;-57
2022/08/07 05:21:17;;;;;;;4.07;3.67;;;10.70;99.90;;;;;;5054789;28;20466;-55
2022/08/07 05:23:50;;;;;;;4.57;3.27;;;10.80;99.90;;;;;;5054065;28;20463;-57
2022/08/07 05:26:20;;;;;;;2.53;2.33;;;10.80;93.80;;;;;;5055273;28;20441;-58
2022/08/07 05:28:50;;;;;;;3.10;2.80;;;10.90;68.20;;;;;;5054688;28;20974;-54
2022/08/07 05:31:22;;;;;;;3.80;3.40;;;11.00;34.90;;;;;;5054952;28;20480;-53
2022/08/07 05:33:54;;;;;;;3.77;3.47;;;11.10;14.60;;;;;;5054819;28;20496;-57
2022/08/07 05:36:23;;;;;;;4.53;2.97;;;11.20;1.00;;;;;;5054972;28;20467;-57
2022/08/07 05:38:55;;;;;;;3.10;2.80;;;11.20;1.00;;;;;;5054369;28;20908;-56
2022/08/07 05:41:24;;;;;;;3.70;3.40;;;11.30;1.00;;;;;;5054790;28;20469;-53
2022/08/07 05:43:55;;;;;;;4.00;3.57;;;11.40;6.50;;;;;;5054679;28;20473;-52
2022/08/07 05:46:27;;;;;;;4.70;3.47;;;11.50;10.80;;;;;;5045363;28;20550;-52
2022/08/07 05:48:54;;;;;;;3.00;2.80;;;11.70;1.00;;;;;;5034068;28;20464;-51
2022/08/07 05:51:22;;;;;;;4.00;3.40;;;11.80;1.00;;;;;;5033910;28;20908;-53
2022/08/07 05:53:53;;;;;;;3.60;3.30;;;11.90;1.00;;;;;;5034815;28;20503;-53
2022/08/07 05:56:24;;;;;;;4.47;3.10;;;12.00;1.00;;;;;;5034523;28;20557;-55
2022/08/07 05:58:52;;;;;;;3.27;2.43;;;12.20;1.00;;;;;;5034694;28;20554;-55
2022/08/07 06:01:20;;;;;;;3.80;2.97;;;12.30;1.00;;;;;;5034458;28;20780;-55
2022/08/07 06:03:54;;;;;;;2.97;2.70;;;12.50;1.00;;;;;;5030593;28;20463;-57
2022/08/07 06:06:23;;;;;;;3.50;2.87;;;12.70;1.00;;;;;;5033031;28;20468;-56
2022/08/07 06:08:54;;;;;;;3.00;2.70;;;12.80;1.00;;;;;;5032784;28;20483;-58
2022/08/07 06:11:21;;;;;;;7.60;3.30;;;13.10;1.00;;;;;;5033344;28;20499;-58
2022/08/07 06:13:48;;;;;;;4.73;2.60;;;13.40;1.00;;;;;;5026606;28;20502;-55
2022/08/07 06:16:16;;;;;;;2.90;2.40;;;13.80;1.00;;;;;;5017680;28;20983;-59
2022/08/07 06:18:46;;;;;;;3.57;2.90;;;14.10;1.00;;;;;;5036277;28;20462;-53
2022/08/07 06:21:14;;;;;;;2.70;2.30;;;14.40;1.00;;;;;;5069501;27;20466;-53
2022/08/07 06:23:48;;;;;;;3.33;2.30;;;14.70;99.90;;;;;;5038017;28;20558;-58
2022/08/07 06:26:17;;;;;;;3.10;2.20;;;15.10;99.90;;;;;;5034086;28;20559;-60
2022/08/07 06:28:52;;;;;;;3.07;2.67;;;15.50;99.90;;;;;;5033820;28;20834;-57
2022/08/07 06:31:27;;;;;;;3.37;2.70;;;16.00;99.90;;;;;;5034186;28;20466;-56
2022/08/07 06:33:55;;;;;;;2.90;2.27;;;16.30;99.90;;;;;;5034296;28;20437;-52
2022/08/07 06:36:25;;;;;;;2.93;2.70;;;16.50;99.90;;;;;;5037029;28;20907;-59
2022/08/07 06:38:53;;;;;;;2.80;2.57;;;16.80;99.90;;;;;;5037638;28;20463;-58
2022/08/07 06:41:28;;;;;;;2.53;2.33;;;17.10;99.90;;;;;;5036801;28;20749;-58
2022/08/07 06:43:57;;;;;;;3.10;2.47;;;17.60;99.90;;;;;;5017042;28;20445;-59
2022/08/07 06:46:25;;;;;;;2.27;2.07;;;17.90;99.90;;;;;;5017914;28;20903;-57
2022/08/07 06:48:53;;;;;;;2.67;2.47;;;18.10;99.90;;;;;;5089089;27;20451;-59
2022/08/07 06:51:31;;;;;;;3.03;2.53;;;18.20;99.90;;;;;;5141644;27;20498;-58
2022/08/07 06:54:02;;;;;;;2.40;2.20;;;18.50;99.90;;;;;;5141796;27;20901;-59
2022/08/07 06:56:45;;;;;;;2.60;2.30;;;18.80;99.90;;;;;;5142363;27;20466;-59
2022/08/07 06:59:15;;;;;;;3.70;2.53;;;19.10;99.90;;;;;;5142031;27;20472;-59
2022/08/07 07:01:44;;;;;;;2.27;2.07;;;19.30;99.90;;;;;;5141813;27;20464;-59
2022/08/07 07:04:14;;;;;;;2.30;2.10;;;19.60;99.90;;;;;;5141889;27;20454;-59
2022/08/07 07:06:43;;;;;;;2.10;1.90;;;20.00;99.90;;;;;;5141596;27;20947;-59
2022/08/07 07:09:30;;;;;;;2.13;1.93;;;20.50;99.90;;;;;;5141644;27;20466;-57
2022/08/07 07:14:56;;;;;;;2.07;1.97;;;20.90;99.90;;;;;;5114699;27;20607;-54
2022/08/07 07:17:32;;;;;;;2.10;1.90;;;21.40;99.90;;;;;;5115103;28;20819;-57
2022/08/07 07:20:03;;;;;;;1.97;1.83;;;21.60;99.90;;;;;;5115053;28;20459;-56
2022/08/07 07:22:31;;;;;;;2.43;1.63;;;21.50;99.90;;;;;;5114711;28;20972;-57
2022/08/07 07:25:04;;;;;;;1.80;1.50;;;21.70;99.90;;;;;;5114874;28;20459;-57
2022/08/07 07:27:35;;;;;;;1.53;1.43;;;22.00;99.90;;;;;;5114555;28;20512;-57
2022/08/07 07:30:12;;;;;;;3.73;1.63;;;22.20;99.90;;;;;;5114916;28;20562;-56
2022/08/07 07:32:44;;;;;;;3.53;2.80;;;22.60;99.90;;;;;;5114837;28;20451;-57
2022/08/07 07:35:20;;;;;;;1.73;1.63;;;23.00;99.90;;;;;;5115016;28;20480;-57
2022/08/07 07:37:49;;;;;;;1.50;1.40;;;23.20;99.90;;;;;;5114740;28;20466;-56
2022/08/07 07:40:19;;;;;;;1.50;1.40;;;23.50;99.90;;;;;;5114097;28;20487;-57
2022/08/07 07:42:49;;;;;;;2.57;2.13;;;23.70;99.90;;;;;;5113889;28;20460;-57
2022/08/07 07:45:24;;;;;;;2.63;1.50;;;23.70;99.90;;;;;;5114460;28;20434;-58
2022/08/07 07:47:56;;;;;;;1.77;1.67;;;24.00;99.90;;;;;;5114764;28;20462;-57
2022/08/07 07:50:25;;;;;;;3.57;1.67;;;24.50;99.90;;;;;;5120515;28;20518;-58
2022/08/07 07:52:58;;;;;;;2.57;1.80;;;24.40;99.90;;;;;;5134971;27;20914;-58
2022/08/07 07:55:27;;;;;;;1.50;1.40;;;24.50;99.90;;;;;;5135391;27;20493;-58
2022/08/07 07:57:56;;;;;;;2.13;1.50;;;24.60;99.90;;;;;;5134970;27;20511;-57
2022/08/07 08:00:27;;;;;;;1.43;1.13;;;24.40;99.90;;;;;;5135096;27;20866;-58
2022/08/07 08:02:57;;;;;;;2.63;1.37;;;24.50;99.90;;;;;;5134966;27;20758;-58
2022/08/07 08:05:25;;;;;;;2.47;1.43;;;25.00;99.90;;;;;;5134973;27;20887;-58
2022/08/07 08:07:53;;;;;;;2.00;1.40;;;25.40;99.90;;;;;;5134614;27;20541;-58
2022/08/07 08:10:21;;;;;;;1.70;1.60;;;25.50;99.90;;;;;;5134680;27;20458;-58
2022/08/07 08:12:50;;;;;;;1.50;1.40;;;25.90;99.90;;;;;;5134102;27;20569;-58
2022/08/07 08:15:17;;;;;;;1.87;1.47;;;25.60;99.90;;;;;;5134793;27;20527;-59
2022/08/07 08:17:48;;;;;;;2.40;1.67;;;25.90;99.90;;;;;;5135625;27;20469;-58
2022/08/07 08:20:24;;;;;;;1.47;1.37;;;26.10;99.90;;;;;;5134614;27;20459;-58
2022/08/07 08:28:30;;;;;;;1.60;1.33;;;26.30;99.90;;;;;;5121110;28;20862;-58
2022/08/07 08:30:59;;;;;;;1.30;1.20;;;25.80;99.90;;;;;;5120697;28;20554;-58
2022/08/07 08:33:35;;;;;;;1.70;1.60;;;26.20;99.90;;;;;;5121235;28;20469;-58
2022/08/07 08:36:08;;;;;;;2.70;1.83;;;26.50;99.90;;;;;;5119295;28;20459;-59
2022/08/07 08:38:41;;;;;;;1.70;1.50;;;26.60;99.90;;;;;;5119878;28;20509;-58
2022/08/07 08:41:17;;;;;;;1.43;1.20;;;26.60;99.90;;;;;;5120525;28;20494;-58
2022/08/07 08:43:55;;;;;;;2.07;1.47;;;26.90;99.90;;;;;;5120433;28;20455;-58
2022/08/07 08:46:32;;;;;;;1.50;1.40;;;27.10;99.90;;;;;;5120064;28;20466;-58
2022/08/07 08:49:13;;;;;;;1.67;1.57;;;26.40;99.90;;;;;;5120249;28;20498;-57
2022/08/07 08:51:51;;;;;;;1.60;1.50;;;26.20;99.90;;;;;;5120314;28;20477;-58
2022/08/07 08:54:24;;;;;;;1.53;1.43;;;26.70;99.90;;;;;;5120063;28;20498;-59
2022/08/07 08:56:54;;;;;;;2.77;1.80;;;25.90;99.90;;;;;;5102959;28;20467;-58
2022/08/07 08:59:31;;;;;;;1.10;1.00;;;26.50;99.90;;;;;;5098536;28;20475;-58
2022/08/07 09:02:08;;;;;;;1.53;1.30;;;26.70;99.90;;;;;;5098570;28;20463;-58
2022/08/07 09:04:58;;;;;;;1.60;1.50;;;26.50;99.90;;;;;;5099078;28;20546;-58
2022/08/07 09:07:36;;;;;;;1.70;1.60;;;25.30;99.90;;;;;;5098830;28;20471;-57
2022/08/07 09:10:14;;;;;;;1.87;1.77;;;26.00;99.90;;;;;;5099072;28;20460;-59
2022/08/07 09:12:56;;;;;;;2.23;1.37;;;26.00;99.90;;;;;;5099251;28;20483;-59
2022/08/07 09:15:34;;;;;;;1.40;1.30;;;26.30;99.90;;;;;;5099422;28;20940;-58
2022/08/07 09:18:33;;;;;;;1.60;1.50;;;26.80;99.90;;;;;;5099163;28;20456;-57
2022/08/07 09:21:12;;;;;;;1.60;1.50;;;26.60;99.90;;;;;;5098470;28;20460;-59
2022/08/07 09:23:56;;;;;;;2.40;1.37;;;26.80;99.90;;;;;;5098216;28;20488;-58
2022/08/07 09:26:44;;;;;;;1.87;1.77;;;27.50;99.90;;;;;;5098562;28;20467;-58
2022/08/07 09:29:23;;;;;;;1.70;1.60;;;28.10;99.90;;;;;;5099157;28;20466;-57
2022/08/07 09:32:01;;;;;;;1.80;1.70;;;28.20;99.90;;;;;;5099273;28;20467;-58
2022/08/07 09:34:46;;;;;;;1.60;1.50;;;28.30;99.90;;;;;;5098787;28;20498;-58
2022/08/07 09:37:25;;;;;;;1.47;1.37;;;28.20;99.90;;;;;;5097752;28;20474;-58
2022/08/07 09:40:03;;;;;;;1.77;1.67;;;26.50;99.90;;;;;;5098270;28;20468;-56
2022/08/07 09:42:43;;;;;;;2.07;1.87;;;25.80;99.90;;;;;;5095902;28;20499;-58
2022/08/07 09:45:18;;;;;;;3.47;1.60;;;25.40;99.90;;;;;;5097812;28;20457;-58
2022/08/07 09:47:59;;;;;;;2.07;1.90;;;25.10;99.90;;;;;;5078429;28;20844;-58
2022/08/07 09:50:56;;;;;;;1.63;1.40;;;26.30;99.90;;;;;;5078430;28;20464;-58
2022/08/07 09:53:27;;;;;;;1.70;1.60;;;25.60;99.90;;;;;;5078239;28;20462;-58
2022/08/07 09:56:16;;;;;;;2.07;1.67;;;25.40;99.90;;;;;;5078082;28;20475;-58
2022/08/07 09:59:01;;;;;;;1.60;1.50;;;26.50;99.90;;;;;;5112211;28;20884;-58
2022/08/07 10:01:49;;;;;;;1.23;1.13;;;27.60;99.90;;;;;;5116631;28;20527;-58
2022/08/07 10:04:32;;;;;;;1.47;1.37;;;28.50;99.90;;;;;;5095953;28;20543;-58
2022/08/07 10:07:10;;;;;;;1.63;1.40;;;29.10;99.90;;;;;;5096615;28;20463;-58
2022/08/07 10:09:52;;;;;;;1.73;1.53;;;29.40;99.90;;;;;;5099089;28;20460;-58
2022/08/07 10:12:44;;;;;;;1.77;1.67;;;29.10;99.90;;;;;;5096230;28;20456;-58
2022/08/07 10:15:37;;;;;;;1.80;1.70;;;29.50;99.90;;;;;;5092066;28;20462;-57
2022/08/07 10:18:25;;;;;;;2.60;1.70;;;28.70;99.90;;;;;;5093705;28;20892;-58
2022/08/07 10:21:12;;;;;;;1.77;1.50;;;28.60;99.90;;;;;;5096567;28;20432;-58
2022/08/07 10:24:13;;;;;;;1.97;1.77;;;29.20;99.90;;;;;;5095140;28;20922;-57
2022/08/07 10:27:11;;;;;;;1.57;1.47;;;29.60;99.90;;;;;;5094641;28;20462;-58
2022/08/07 10:29:57;;;;;;;1.50;1.40;;;28.60;99.90;;;;;;5093163;28;20555;-58
2022/08/07 10:32:41;;;;;;;2.60;1.60;;;29.10;99.90;;;;;;5095334;28;20452;-58
2022/08/07 10:35:19;;;;;;;1.83;1.73;;;29.30;99.90;;;;;;5095146;28;20595;-58
2022/08/07 10:38:06;;;;;;;1.80;1.70;;;27.70;99.90;;;;;;5095225;28;20452;-58
2022/08/07 10:40:41;;;;;;;1.67;1.57;;;27.60;99.90;;;;;;5092604;28;20463;-58
2022/08/07 10:43:15;;;;;;;2.10;2.00;;;26.60;99.90;;;;;;5095016;28;20432;-57
2022/08/07 10:45:48;;;;;;;1.67;1.57;;;26.40;99.90;;;;;;5095384;28;20456;-58
2022/08/07 10:48:34;;;;;;;1.27;1.17;;;27.70;99.90;;;;;;5093661;28;20471;-58
2022/08/07 10:51:10;;;;;;;2.10;1.30;;;28.10;99.90;;;;;;5094650;28;20469;-57
2022/08/07 10:53:44;;;;;;;1.77;1.63;;;28.20;99.90;;;;;;5094191;28;20452;-58
2022/08/07 10:56:31;;;;;;;2.10;1.77;;;29.10;99.90;;;;;;5093100;28;20460;-58
2022/08/07 10:59:16;;;;;;;1.77;1.60;;;29.80;99.90;;;;;;5094949;28;20431;-58
2022/08/07 11:01:51;;;;;;;2.13;2.03;;;28.10;99.90;;;;;;5094794;28;20515;-57
2022/08/07 11:04:32;;;;;;;1.93;1.83;;;27.40;99.90;;;;;;5095946;28;20460;-58
2022/08/07 11:07:06;;;;;;;2.03;1.93;;;26.80;99.90;;;;;;5092424;28;20468;-58
2022/08/07 11:09:54;;;;;;;3.73;1.50;;;27.90;99.90;;;;;;5078097;28;20718;-58
2022/08/07 11:12:28;;;;;;;1.57;1.47;;;29.00;99.90;;;;;;5075851;28;20446;-57
2022/08/07 11:15:03;;;;;;;1.67;1.57;;;29.90;99.90;;;;;;5076512;28;20583;-59
2022/08/07 11:17:45;;;;;;;1.80;1.43;;;29.00;99.90;;;;;;5089107;28;20452;-58
2022/08/07 11:20:29;;;;;;;1.70;1.60;;;29.00;99.90;;;;;;5097152;28;20555;-58
2022/08/07 11:23:07;;;;;;;1.63;1.53;;;28.10;99.90;;;;;;5097458;28;20467;-58
2022/08/07 11:25:39;;;;;;;1.90;1.80;;;29.10;99.90;;;;;;5097484;28;20546;-58
2022/08/07 11:28:15;;;;;;;2.30;2.00;;;29.40;99.90;;;;;;5096748;28;20460;-58
2022/08/07 11:30:55;;;;;;;1.60;1.43;;;29.80;99.90;;;;;;5097005;28;20466;-59
2022/08/07 11:33:29;;;;;;;1.97;1.87;;;30.50;99.90;;;;;;5097116;28;20444;-58
2022/08/07 11:36:11;;;;;;;1.60;1.40;;;31.30;99.90;;;;;;5096838;28;20487;-58
2022/08/07 11:38:52;;;;;;;1.60;1.50;;;31.30;99.90;;;;;;5093526;28;20447;-59
2022/08/07 11:41:23;;;;;;;1.60;1.50;;;30.60;99.90;;;;;;5096959;28;20466;-59
2022/08/07 11:44:03;;;;;;;1.63;1.53;;;29.30;99.90;;;;;;5096813;28;20521;-59
2022/08/07 11:46:49;;;;;;;1.93;1.67;;;28.70;99.90;;;;;;5096807;28;20430;-58
2022/08/07 11:49:55;;;;;;;3.33;1.87;;;29.50;99.90;;;;;;5096285;28;20467;-58
2022/08/07 11:52:46;;;;;;;1.47;1.37;;;30.00;99.90;;;;;;5096689;28;20470;-58
2022/08/07 11:55:29;;;;;;;2.27;2.03;;;30.80;99.90;;;;;;5097126;28;20535;-58
2022/08/07 11:58:13;;;;;;;3.80;1.40;;;30.10;99.90;;;;;;5096541;28;20528;-59
2022/08/07 12:00:51;;;;;;;1.83;1.73;;;30.20;99.90;;;;;;5098653;28;20828;-58
2022/08/07 12:03:44;;;;;;;1.50;1.40;;;29.80;99.90;;;;;;5100722;28;20824;-58
2022/08/07 12:06:37;;;;;;;2.00;1.63;;;28.10;99.90;;;;;;5100562;28;20464;-57
2022/08/07 12:09:13;;;;;;;1.63;1.53;;;26.90;99.90;;;;;;5097790;28;20495;-58
2022/08/07 12:11:47;;;;;;;1.70;1.60;;;28.20;99.90;;;;;;5100250;28;20487;-58
2022/08/07 12:14:19;;;;;;;1.93;1.80;;;27.30;99.90;;;;;;5100125;28;20791;-58
2022/08/07 12:16:52;;;;;;;3.37;2.03;;;27.80;99.90;;;;;;5098682;28;20546;-58
2022/08/07 12:19:33;;;;;;;1.53;1.43;;;28.80;99.90;;;;;;5088326;28;20555;-56
2022/08/07 12:22:13;;;;;;;1.80;1.70;;;29.90;99.90;;;;;;5099225;28;20881;-58
2022/08/07 12:27:37;;;;;;;1.30;1.20;;;31.20;99.90;;;;;;5098819;28;20411;-56
2022/08/07 12:30:07;;;;;;;2.50;2.30;;;31.40;99.90;;;;;;5098574;28;20498;-56
2022/08/07 12:32:45;;;;;;;2.20;2.10;;;31.10;99.90;;;;;;5100016;28;20876;-58
2022/08/07 12:35:18;;;;;;;2.10;2.00;;;30.50;99.90;;;;;;5099032;28;21018;-58
2022/08/07 12:37:52;;;;;;;1.73;1.53;;;30.20;99.90;;;;;;5100250;28;20573;-58
2022/08/07 12:40:23;;;;;;;2.27;1.67;;;28.70;99.90;;;;;;5098816;28;20547;-58
2022/08/07 12:42:55;;;;;;;1.50;1.40;;;29.20;99.90;;;;;;5097090;28;20445;-58
2022/08/07 12:45:30;;;;;;;1.17;1.07;;;29.70;99.90;;;;;;5097198;28;20521;-58
2022/08/07 12:48:04;;;;;;;1.60;1.50;;;30.30;99.90;;;;;;5097770;28;20806;-58
2022/08/07 12:50:38;;;;;;;1.77;1.20;;;30.80;99.90;;;;;;5097467;28;20437;-57
2022/08/07 12:53:12;;;;;;;1.53;1.43;;;31.40;99.90;;;;;;5099244;28;20525;-58
2022/08/07 12:55:46;;;;;;;1.40;1.30;;;30.10;99.90;;;;;;5099572;28;20487;-58
2022/08/07 12:58:17;;;;;;;2.47;2.27;;;30.00;99.90;;;;;;5099396;28;20568;-57
2022/08/07 13:00:50;;;;;;;1.97;1.37;;;29.50;99.90;;;;;;5106496;28;20447;-58
2022/08/07 13:03:48;;;;;;;3.00;1.80;;;30.20;99.90;;;;;;5118309;28;20491;-58
2022/08/07 13:06:29;;;;;;;1.60;1.50;;;30.70;99.90;;;;;;5078481;28;20457;-54
2022/08/07 13:09:04;;;;;;;1.53;1.43;;;30.70;99.90;;;;;;5085394;28;20498;-59
2022/08/07 13:11:47;;;;;;;1.60;1.50;;;30.90;99.90;;;;;;5101785;28;20459;-58
2022/08/07 13:14:24;;;;;;;1.77;1.67;;;31.10;99.90;;;;;;5095713;28;20572;-58
2022/08/07 13:17:01;;;;;;;1.73;1.63;;;31.30;99.90;;;;;;5094561;28;20550;-58
2022/08/07 13:19:39;;;;;;;1.80;1.70;;;30.80;99.90;;;;;;5096044;28;20533;-58
2022/08/07 13:22:16;;;;;;;1.43;1.33;;;30.90;99.90;;;;;;5096294;28;20441;-59
2022/08/07 13:24:53;;;;;;;1.63;1.53;;;30.80;99.90;;;;;;5095681;28;20441;-58
2022/08/07 13:27:26;;;;;;;1.97;1.87;;;31.40;99.90;;;;;;5076617;28;20460;-58
2022/08/07 13:30:04;;;;;;;2.10;1.47;;;31.60;99.90;;;;;;5084399;28;20896;-59
2022/08/07 13:32:41;;;;;;;1.83;1.70;;;31.90;99.90;;;;;;5096320;28;20463;-58
2022/08/07 13:35:22;;;;;;;2.23;1.63;;;31.90;99.90;;;;;;5098148;28;20866;-58